Time;durP1;ratioP1;P1;durP2;ratioP2;P2;SDS_P1;SDS_P2;PMS_P1;PMS_P2;Temp;Humidity;BMP_temperature;BMP_pressure;BME280_temperature;BME280_humidity;BME280_pressure;Samples;Min_cycle;Max_cycle;Signal;HPM_P1;HPM_P2
2022/07/05 00:02:21;;;;;;;20.23;12.48;;;;;;;15.78;67.08;102012.03;4988814;28;20371;-55
2022/07/05 00:04:47;;;;;;;19.40;12.10;;;;;;;15.75;67.47;102007.09;4991085;28;20030;-52
2022/07/05 00:07:18;;;;;;;18.60;11.85;;;;;;;15.72;67.08;102011.31;4990774;28;20469;-50
2022/07/05 00:09:49;;;;;;;19.60;12.43;;;;;;;15.64;67.77;102006.50;4990760;28;20031;-53
2022/07/05 00:12:14;;;;;;;20.75;12.35;;;;;;;15.67;67.94;102011.47;4990397;28;20040;-52
2022/07/05 00:14:41;;;;;;;21.05;12.48;;;;;;;15.64;67.74;102005.66;4989200;28;20018;-54
2022/07/05 00:17:07;;;;;;;19.40;12.18;;;;;;;15.63;68.64;102012.41;4990838;28;20041;-52
2022/07/05 00:19:33;;;;;;;19.73;11.60;;;;;;;15.46;68.39;101991.53;4985976;28;20126;-52
2022/07/05 00:21:58;;;;;;;19.33;12.20;;;;;;;15.51;69.04;102007.31;4970722;28;20056;-52
2022/07/05 00:24:25;;;;;;;20.58;11.88;;;;;;;15.44;69.79;102004.97;4971312;28;20053;-53
2022/07/05 00:26:51;;;;;;;19.50;12.07;;;;;;;15.33;70.52;102004.34;4986003;28;20047;-54
2022/07/05 00:29:16;;;;;;;19.73;12.18;;;;;;;15.26;70.82;102010.34;4986130;28;20062;-55
2022/07/05 00:31:41;;;;;;;19.65;12.88;;;;;;;15.15;71.11;102008.06;4970968;28;20035;-52
2022/07/05 00:34:06;;;;;;;19.17;12.07;;;;;;;15.11;70.90;101999.50;4974893;28;20073;-53
2022/07/05 00:36:32;;;;;;;20.30;12.48;;;;;;;15.07;70.76;102001.25;4975204;28;20101;-54
2022/07/05 00:38:57;;;;;;;19.67;12.20;;;;;;;15.02;71.28;102002.16;4989766;28;20114;-53
2022/07/05 00:41:23;;;;;;;18.85;12.13;;;;;;;15.00;71.65;102004.47;4989658;28;20027;-52
2022/07/05 00:43:58;;;;;;;20.45;11.88;;;;;;;14.92;72.23;102002.38;4975078;28;20031;-51
2022/07/05 00:46:24;;;;;;;19.27;11.90;;;;;;;14.79;72.93;101999.25;4974897;28;20018;-51
2022/07/05 00:48:49;;;;;;;19.05;11.75;;;;;;;14.72;73.44;102001.63;4974968;28;20116;-53
2022/07/05 00:51:15;;;;;;;19.65;11.60;;;;;;;14.70;73.00;101991.91;4974495;28;20109;-54
2022/07/05 00:53:41;;;;;;;19.42;11.43;;;;;;;14.67;73.12;101987.78;4974831;28;20070;-53
2022/07/05 00:56:07;;;;;;;18.42;11.55;;;;;;;14.61;73.28;101997.34;4974724;28;20363;-52
2022/07/05 00:58:33;;;;;;;18.08;11.45;;;;;;;14.61;73.32;102002.91;4974723;28;20107;-51
2022/07/05 01:01:01;;;;;;;19.15;11.98;;;;;;;14.56;73.33;101997.41;4974921;28;20094;-51
2022/07/05 01:03:27;;;;;;;19.10;11.63;;;;;;;14.55;73.00;101998.56;4973514;28;20194;-50
2022/07/05 01:05:53;;;;;;;19.10;11.65;;;;;;;14.56;73.30;102003.81;4972997;28;20114;-53
2022/07/05 01:08:19;;;;;;;18.48;11.70;;;;;;;14.55;73.52;102001.34;4973592;28;20054;-50
2022/07/05 01:10:45;;;;;;;20.17;12.00;;;;;;;14.49;73.82;102015.34;4989364;28;20522;-52
2022/07/05 01:13:10;;;;;;;19.05;12.02;;;;;;;14.49;73.91;102008.97;4974715;28;20470;-55
2022/07/05 01:15:36;;;;;;;19.38;11.57;;;;;;;14.45;73.69;102019.03;4975131;28;20409;-51
2022/07/05 01:18:01;;;;;;;19.90;11.90;;;;;;;14.43;74.07;102012.94;5017747;22;20128;-50
2022/07/05 01:20:27;;;;;;;19.40;11.85;;;;;;;14.42;74.37;102009.34;5013121;28;20026;-52
2022/07/05 01:22:56;;;;;;;20.95;11.40;;;;;;;14.41;74.54;102017.97;4995728;28;20026;-49
2022/07/05 01:25:24;;;;;;;19.40;11.77;;;;;;;14.35;74.75;102018.09;5013851;28;20096;-51
2022/07/05 01:27:50;;;;;;;19.08;11.95;;;;;;;14.29;75.26;102001.75;5013656;28;20026;-50
2022/07/05 01:30:17;;;;;;;19.50;12.38;;;;;;;14.25;75.12;102001.53;5013645;28;20113;-52
2022/07/05 01:32:42;;;;;;;21.08;12.88;;;;;;;14.21;75.69;102006.09;4995401;28;20125;-51
2022/07/05 01:35:09;;;;;;;20.13;12.50;;;;;;;14.17;75.77;102007.81;5013712;28;20025;-52
2022/07/05 01:37:35;;;;;;;19.98;12.57;;;;;;;14.04;76.50;102006.63;5012722;28;20036;-53
2022/07/05 01:40:04;;;;;;;19.08;12.82;;;;;;;13.97;77.02;102004.19;5013104;28;20066;-52
2022/07/05 01:42:30;;;;;;;21.17;14.00;;;;;;;13.90;77.21;102000.97;5013324;28;20025;-52
2022/07/05 01:44:56;;;;;;;22.05;14.85;;;;;;;13.86;76.85;102008.25;5013517;28;20573;-50
2022/07/05 01:47:22;;;;;;;22.83;16.17;;;;;;;13.78;78.14;102004.22;5013049;28;20026;-51
2022/07/05 01:49:50;;;;;;;21.45;14.65;;;;;;;13.69;77.69;102006.81;5012275;28;20038;-51
2022/07/05 01:52:19;;;;;;;20.75;13.90;;;;;;;13.67;78.35;102008.25;5013204;28;20034;-52
2022/07/05 01:54:45;;;;;;;20.98;14.23;;;;;;;13.61;78.90;102007.50;5013042;28;20088;-48
2022/07/05 01:57:10;;;;;;;22.33;14.70;;;;;;;13.63;79.09;102008.03;5013214;28;20060;-50
2022/07/05 01:59:36;;;;;;;22.05;14.48;;;;;;;13.60;78.98;102005.03;5013077;28;20034;-53
2022/07/05 02:02:03;;;;;;;21.17;14.68;;;;;;;13.48;79.67;102006.28;5012850;28;20104;-50
2022/07/05 02:04:29;;;;;;;20.95;15.18;;;;;;;13.49;79.67;102001.53;5013028;28;20068;-52
2022/07/05 02:06:55;;;;;;;22.42;15.80;;;;;;;13.44;79.27;101996.84;5012897;28;20053;-52
2022/07/05 02:09:21;;;;;;;21.95;15.13;;;;;;;13.34;79.46;101999.72;5012842;28;20060;-50
2022/07/05 02:11:46;;;;;;;21.23;15.05;;;;;;;13.32;79.13;102002.81;5012963;28;20139;-53
2022/07/05 02:14:11;;;;;;;22.52;14.27;;;;;;;13.25;79.81;102005.94;5012581;28;20045;-52
2022/07/05 02:16:37;;;;;;;20.85;13.48;;;;;;;13.25;79.23;102005.13;5008663;28;20116;-52
2022/07/05 02:19:03;;;;;;;22.88;14.50;;;;;;;13.21;79.84;102004.06;4993064;28;20109;-50
2022/07/05 02:21:28;;;;;;;20.98;14.30;;;;;;;13.18;79.67;102002.72;4992334;28;20052;-51
2022/07/05 02:23:53;;;;;;;20.70;13.90;;;;;;;13.19;80.05;102006.28;4993354;28;20141;-51
2022/07/05 02:26:19;;;;;;;21.90;14.50;;;;;;;13.17;80.02;102003.81;4992934;28;20100;-52
2022/07/05 02:28:44;;;;;;;21.10;14.55;;;;;;;13.14;80.51;102007.19;4992578;28;20045;-52
2022/07/05 02:31:09;;;;;;;21.92;13.77;;;;;;;13.12;79.94;102001.13;4992237;28;20030;-50
2022/07/05 02:33:35;;;;;;;21.20;14.20;;;;;;;13.10;80.44;102004.16;4992794;28;20109;-50
2022/07/05 02:36:11;;;;;;;22.58;15.00;;;;;;;13.09;80.94;102004.47;4992760;28;20026;-52
2022/07/05 02:38:37;;;;;;;21.38;13.90;;;;;;;13.08;81.16;102008.38;4993030;28;20080;-52
2022/07/05 02:41:07;;;;;;;21.83;14.50;;;;;;;13.08;81.65;102008.38;4992901;28;20018;-52
2022/07/05 02:43:33;;;;;;;20.48;14.23;;;;;;;13.08;81.75;102013.94;4992918;28;20030;-52
2022/07/05 02:45:59;;;;;;;20.98;13.90;;;;;;;13.05;81.56;102001.47;4992781;28;20034;-52
2022/07/05 02:48:25;;;;;;;22.75;14.23;;;;;;;13.05;81.92;102009.81;4992903;28;20041;-51
2022/07/05 02:50:50;;;;;;;22.15;14.95;;;;;;;13.05;82.27;102007.03;4992101;28;20022;-51
2022/07/05 02:53:15;;;;;;;23.83;15.68;;;;;;;13.08;82.13;102019.50;4992673;28;20121;-52
2022/07/05 02:55:40;;;;;;;23.88;14.88;;;;;;;13.09;82.35;102021.97;4992047;28;20030;-52
2022/07/05 02:58:06;;;;;;;23.63;16.10;;;;;;;13.13;81.95;102024.16;4992220;28;20045;-52
2022/07/05 03:00:32;;;;;;;23.60;15.65;;;;;;;13.16;81.83;102029.13;4992452;28;20369;-52
2022/07/05 03:02:57;;;;;;;21.10;14.38;;;;;;;13.16;81.02;102023.59;4991869;28;20113;-49
2022/07/05 03:05:22;;;;;;;21.38;14.00;;;;;;;13.15;81.14;102017.19;4992326;28;20026;-51
2022/07/05 03:07:47;;;;;;;20.98;14.70;;;;;;;13.14;81.36;102020.25;4992046;28;20443;-50
2022/07/05 03:10:13;;;;;;;22.08;14.63;;;;;;;13.09;81.66;102015.59;4992242;28;20108;-54
2022/07/05 03:12:38;;;;;;;21.42;14.93;;;;;;;13.11;81.62;102024.47;4992065;28;20335;-53
2022/07/05 03:15:04;;;;;;;23.88;15.07;;;;;;;13.07;82.34;102021.44;4991939;28;20451;-54
2022/07/05 03:17:29;;;;;;;22.25;15.10;;;;;;;13.10;82.25;102029.19;4991652;28;20057;-53
2022/07/05 03:19:54;;;;;;;22.10;15.70;;;;;;;13.11;82.39;102027.25;4973757;28;20092;-53
2022/07/05 03:22:20;;;;;;;24.20;15.57;;;;;;;13.13;82.72;102036.09;4991171;28;20042;-49
2022/07/05 03:24:45;;;;;;;23.42;16.10;;;;;;;13.15;82.56;102033.84;4991744;28;20369;-51
2022/07/05 03:27:10;;;;;;;25.73;16.70;;;;;;;13.12;82.65;102040.00;4991034;28;20018;-49
2022/07/05 03:29:36;;;;;;;23.40;16.20;;;;;;;13.09;82.70;102035.03;4991375;28;20030;-50
2022/07/05 03:32:01;;;;;;;24.88;17.45;;;;;;;13.08;83.10;102025.84;4991629;28;20110;-53
2022/07/05 03:34:26;;;;;;;22.83;16.48;;;;;;;13.05;83.25;102043.13;4991500;28;20525;-52
2022/07/05 03:36:52;;;;;;;23.88;16.70;;;;;;;13.04;82.45;102041.47;4991658;28;20030;-52
2022/07/05 03:39:17;;;;;;;25.02;17.25;;;;;;;13.08;83.05;102045.31;4991420;28;20022;-50
2022/07/05 03:41:42;;;;;;;24.13;16.73;;;;;;;13.14;83.04;102051.63;4991284;28;20022;-52
2022/07/05 03:44:07;;;;;;;24.25;17.70;;;;;;;13.20;82.71;102055.19;4991281;28;20419;-52
2022/07/05 03:46:33;;;;;;;25.13;16.85;;;;;;;13.23;82.40;102038.75;4991406;28;20118;-52
2022/07/05 03:48:58;;;;;;;23.27;16.83;;;;;;;13.26;82.13;102038.19;4991001;28;20502;-52
2022/07/05 03:51:23;;;;;;;25.30;17.35;;;;;;;13.31;82.30;102030.91;4990956;28;20037;-52
2022/07/05 03:53:49;;;;;;;24.38;16.80;;;;;;;13.44;81.63;102041.34;4991382;28;20038;-52
2022/07/05 03:56:19;;;;;;;25.88;16.75;;;;;;;13.51;81.06;102044.56;4991126;28;20467;-51
2022/07/05 03:58:46;;;;;;;24.35;17.17;;;;;;;13.53;81.14;102044.31;4991058;28;20057;-52
2022/07/05 04:01:11;;;;;;;24.75;17.23;;;;;;;13.54;81.54;102051.53;4991116;28;20022;-49
2022/07/05 04:03:36;;;;;;;23.77;16.30;;;;;;;13.55;81.24;102047.63;4990819;28;20402;-57
2022/07/05 04:06:02;;;;;;;24.75;16.60;;;;;;;13.55;81.74;102058.75;4990822;28;20120;-52
2022/07/05 04:08:27;;;;;;;24.77;16.75;;;;;;;13.59;81.51;102054.22;4990469;28;20030;-48
2022/07/05 04:10:52;;;;;;;24.55;16.63;;;;;;;13.59;81.59;102059.78;4990903;28;20022;-50
2022/07/05 04:13:17;;;;;;;24.40;17.60;;;;;;;13.65;81.25;102052.22;4990813;28;20033;-52
2022/07/05 04:15:43;;;;;;;24.95;17.58;;;;;;;13.66;81.20;102059.44;4991015;28;20034;-50
2022/07/05 04:18:08;;;;;;;25.42;17.15;;;;;;;13.69;81.61;102068.00;4990308;28;20046;-53
2022/07/05 04:20:33;;;;;;;25.85;17.27;;;;;;;13.74;81.56;102064.31;4990225;28;20173;-52
2022/07/05 04:22:59;;;;;;;25.75;16.83;;;;;;;13.78;80.92;102047.88;4990522;28;20327;-52
2022/07/05 04:25:24;;;;;;;23.10;16.95;;;;;;;13.87;80.98;102059.97;4990700;28;20030;-48
2022/07/05 04:27:51;;;;;;;24.20;16.52;;;;;;;13.79;80.89;102052.31;4990373;28;20439;-51
2022/07/05 04:30:19;;;;;;;24.35;16.23;;;;;;;13.90;80.91;102056.59;4990811;28;20429;-52
2022/07/05 04:32:44;;;;;;;24.33;16.08;;;;;;;13.94;80.93;102059.63;4990567;28;20109;-53
2022/07/05 04:35:10;;;;;;;23.50;15.80;;;;;;;13.96;80.71;102068.50;4990885;28;20026;-48
2022/07/05 04:37:36;;;;;;;22.42;15.73;;;;;;;13.98;80.82;102069.84;4990750;28;20386;-55
2022/07/05 04:40:04;;;;;;;22.77;16.40;;;;;;;13.94;81.13;102066.00;4990729;28;20037;-51
2022/07/05 04:42:29;;;;;;;23.00;15.73;;;;;;;13.99;80.84;102070.66;4990838;28;20097;-52
2022/07/05 04:44:55;;;;;;;22.98;15.43;;;;;;;14.00;80.49;102070.38;4990616;28;20034;-48
2022/07/05 04:47:20;;;;;;;22.05;16.60;;;;;;;14.04;80.32;102078.94;4990578;28;20034;-49
2022/07/05 04:49:45;;;;;;;22.10;15.40;;;;;;;14.07;80.69;102058.03;4990112;28;20031;-49
2022/07/05 04:52:10;;;;;;;23.17;15.70;;;;;;;14.17;80.54;102055.94;4989793;28;20105;-52
2022/07/05 04:54:36;;;;;;;23.52;16.25;;;;;;;14.28;80.55;102058.56;4990501;28;20366;-51
2022/07/05 04:57:02;;;;;;;23.13;15.70;;;;;;;14.37;79.93;102065.09;4991175;28;20036;-52
2022/07/05 04:59:27;;;;;;;23.92;16.20;;;;;;;14.42;80.37;102053.91;4990882;28;20030;-49
2022/07/05 05:01:53;;;;;;;22.17;16.45;;;;;;;14.48;79.48;102060.22;4990647;28;20031;-48
2022/07/05 05:04:18;;;;;;;22.98;16.40;;;;;;;14.51;79.73;102060.44;4990789;28;20407;-52
2022/07/05 05:06:43;;;;;;;22.92;16.58;;;;;;;14.59;79.12;102056.13;4990816;28;20137;-52
2022/07/05 05:09:08;;;;;;;27.40;16.08;;;;;;;14.73;78.48;102052.56;4990717;28;20037;-52
2022/07/05 05:11:34;;;;;;;23.63;15.82;;;;;;;14.83;78.17;102057.97;4991166;28;20037;-49
2022/07/05 05:13:59;;;;;;;22.48;15.60;;;;;;;14.90;77.89;102052.00;4990885;28;20390;-48
2022/07/05 05:16:24;;;;;;;24.17;16.15;;;;;;;14.96;78.01;102059.13;4990011;28;20038;-52
2022/07/05 05:18:50;;;;;;;23.77;15.88;;;;;;;14.98;77.92;102062.44;4992105;28;20041;-49
2022/07/05 05:21:15;;;;;;;23.80;15.98;;;;;;;15.05;77.83;102060.09;4994063;28;20049;-47
2022/07/05 05:23:41;;;;;;;22.73;16.38;;;;;;;15.10;77.85;102060.00;4993551;28;20469;-49
2022/07/05 05:26:06;;;;;;;25.10;16.70;;;;;;;15.05;77.48;102070.41;4993825;28;20369;-52
2022/07/05 05:28:31;;;;;;;23.25;16.60;;;;;;;15.11;77.56;102083.09;4994121;28;20097;-50
2022/07/05 05:30:57;;;;;;;23.75;16.33;;;;;;;15.08;77.93;102084.56;4993975;28;20035;-49
2022/07/05 05:33:22;;;;;;;23.98;15.75;;;;;;;15.13;77.77;102081.66;4993623;28;20048;-51
2022/07/05 05:35:47;;;;;;;24.73;16.70;;;;;;;15.22;77.14;102086.53;4993970;28;20030;-49
2022/07/05 05:38:13;;;;;;;24.00;16.58;;;;;;;15.34;77.10;102086.03;4993971;28;20529;-50
2022/07/05 05:40:40;;;;;;;23.83;16.10;;;;;;;15.40;76.48;102087.59;4993902;28;20030;-52
2022/07/05 05:43:06;;;;;;;23.42;16.55;;;;;;;15.43;76.40;102078.63;4994353;28;20177;-51
2022/07/05 05:45:31;;;;;;;23.77;16.98;;;;;;;15.53;76.05;102091.50;4993930;28;20474;-50
2022/07/05 05:47:58;;;;;;;24.67;16.20;;;;;;;15.63;75.69;102084.91;4993941;28;20549;-50
2022/07/05 05:50:26;;;;;;;25.05;16.92;;;;;;;15.72;74.87;102083.88;4976558;28;20053;-50
2022/07/05 05:52:52;;;;;;;24.73;16.55;;;;;;;15.83;74.44;102092.84;4993284;28;20113;-49
2022/07/05 05:55:19;;;;;;;23.25;16.70;;;;;;;15.95;74.05;102091.50;4993600;28;20109;-52
2022/07/05 05:57:45;;;;;;;25.38;16.95;;;;;;;15.98;73.58;102097.28;4993753;28;20402;-50
2022/07/05 06:00:11;;;;;;;24.45;17.15;;;;;;;16.05;73.54;102099.66;4993904;28;20046;-49
2022/07/05 06:02:37;;;;;;;23.48;16.55;;;;;;;16.12;73.06;102100.06;4993556;28;20117;-51
2022/07/05 06:05:02;;;;;;;26.17;17.60;;;;;;;16.20;73.01;102099.31;4993759;28;20030;-53
2022/07/05 06:07:28;;;;;;;24.55;16.63;;;;;;;16.31;72.79;102101.88;4993750;28;20037;-53
2022/07/05 06:09:53;;;;;;;23.80;16.88;;;;;;;16.46;72.78;102109.06;4993412;28;20107;-53
2022/07/05 06:12:18;;;;;;;23.67;16.50;;;;;;;16.64;71.39;102107.25;4993585;28;20088;-53
2022/07/05 06:14:44;;;;;;;25.13;16.20;;;;;;;16.79;71.24;102106.84;4993695;28;20116;-55
2022/07/05 06:17:09;;;;;;;22.73;16.30;;;;;;;16.89;70.50;102108.59;4993367;28;20501;-53
2022/07/05 06:19:34;;;;;;;25.02;17.60;;;;;;;16.93;71.46;102117.16;4993585;28;20034;-54
2022/07/05 06:21:59;;;;;;;27.23;18.05;;;;;;;16.97;72.15;102104.19;4975604;28;20026;-54
2022/07/05 06:24:25;;;;;;;24.15;16.50;;;;;;;16.99;70.75;102104.72;4993326;28;20537;-53
2022/07/05 06:26:50;;;;;;;23.13;16.27;;;;;;;17.00;70.37;102107.19;4992955;28;20056;-53
2022/07/05 06:29:15;;;;;;;25.35;16.15;;;;;;;17.06;69.38;102107.06;4975420;28;20446;-54
2022/07/05 06:31:40;;;;;;;23.55;16.88;;;;;;;17.09;70.59;102110.03;4992537;28;20110;-54
2022/07/05 06:34:06;;;;;;;24.13;16.52;;;;;;;17.22;70.20;102110.28;4993381;28;20030;-54
2022/07/05 06:36:31;;;;;;;23.35;16.70;;;;;;;17.35;69.87;102122.50;4992968;28;20062;-53
2022/07/05 06:38:56;;;;;;;22.80;15.98;;;;;;;17.39;68.78;102118.75;4993344;28;20049;-52
2022/07/05 06:41:22;;;;;;;23.80;16.25;;;;;;;17.45;68.63;102122.22;4993151;28;20026;-53
2022/07/05 06:43:47;;;;;;;22.98;16.50;;;;;;;17.50;68.19;102118.47;4993140;28;20363;-53
2022/07/05 06:46:13;;;;;;;23.30;15.23;;;;;;;17.64;67.77;102123.97;4993064;28;20088;-53
2022/07/05 06:48:39;;;;;;;23.13;14.73;;;;;;;17.70;66.99;102120.69;4992858;28;20088;-53
2022/07/05 06:51:04;;;;;;;22.00;14.98;;;;;;;17.77;67.08;102120.19;4991699;28;20030;-50
2022/07/05 06:53:29;;;;;;;24.00;14.77;;;;;;;17.78;65.72;102122.69;4974345;28;20481;-53
2022/07/05 06:55:55;;;;;;;23.20;14.98;;;;;;;17.84;67.61;102128.13;4992544;28;20119;-56
2022/07/05 06:58:20;;;;;;;23.42;15.10;;;;;;;17.81;66.92;102125.97;4992295;28;20045;-54
2022/07/05 07:00:45;;;;;;;22.08;14.30;;;;;;;17.71;67.22;102121.50;4992276;28;20045;-53
2022/07/05 07:03:11;;;;;;;21.38;15.00;;;;;;;17.60;68.45;102119.00;4992368;28;20430;-55
2022/07/05 07:05:36;;;;;;;22.25;15.00;;;;;;;17.66;67.82;102124.47;4979652;28;20035;-53
2022/07/05 07:10:45;;;;;;;24.10;16.17;;;;;;;17.88;68.30;102121.56;4990285;28;20576;-58
2022/07/05 07:13:11;;;;;;;22.33;15.73;;;;;;;18.04;67.03;102127.56;4989928;28;20061;-58
2022/07/05 07:15:37;;;;;;;22.65;15.40;;;;;;;18.14;65.53;102120.81;4990596;28;20030;-58
2022/07/05 07:18:03;;;;;;;23.75;15.98;;;;;;;18.27;64.84;102118.19;4989733;28;20490;-57
2022/07/05 07:20:29;;;;;;;24.55;15.38;;;;;;;18.41;64.75;102130.09;4990360;28;20041;-59
2022/07/05 07:22:54;;;;;;;23.33;15.40;;;;;;;18.54;64.87;102129.09;4990135;28;20109;-57
2022/07/05 07:25:23;;;;;;;23.17;15.50;;;;;;;18.62;63.88;102132.22;4990013;28;20057;-54
2022/07/05 07:27:53;;;;;;;22.73;14.90;;;;;;;18.75;63.62;102138.81;4990086;28;20431;-53
2022/07/05 07:30:21;;;;;;;21.88;15.00;;;;;;;18.70;63.05;102129.41;4989541;28;20049;-56
2022/07/05 07:32:47;;;;;;;23.65;15.60;;;;;;;18.78;63.28;102140.94;4972120;28;20037;-56
2022/07/05 07:35:13;;;;;;;21.80;14.10;;;;;;;18.83;63.08;102135.19;4989996;28;20137;-58
2022/07/05 07:37:38;;;;;;;22.42;14.40;;;;;;;18.81;62.82;102140.28;4989899;28;20050;-56
2022/07/05 07:40:05;;;;;;;20.55;14.35;;;;;;;18.82;62.69;102144.75;4984442;28;20038;-57
2022/07/05 07:42:30;;;;;;;21.33;14.60;;;;;;;18.82;62.86;102141.94;4983819;28;20030;-55
2022/07/05 07:44:56;;;;;;;21.23;14.15;;;;;;;18.96;63.22;102139.78;4973056;28;20038;-58
2022/07/05 07:47:21;;;;;;;22.85;14.90;;;;;;;19.10;63.01;102138.78;4989913;28;20029;-58
2022/07/05 07:49:47;;;;;;;21.65;14.35;;;;;;;19.15;62.06;102145.06;4989688;28;20026;-56
2022/07/05 07:52:12;;;;;;;21.60;13.85;;;;;;;19.24;62.33;102136.59;4989643;28;20034;-55
2022/07/05 07:54:38;;;;;;;21.42;13.68;;;;;;;19.39;61.97;102138.03;4989996;28;20462;-56
2022/07/05 07:57:04;;;;;;;23.02;14.57;;;;;;;19.53;62.44;102148.22;4990306;28;20134;-56
2022/07/05 07:59:31;;;;;;;22.95;14.77;;;;;;;19.66;62.48;102141.56;4990161;28;20072;-56
2022/07/05 08:01:56;;;;;;;22.70;14.07;;;;;;;19.70;62.52;102139.72;4988679;28;20030;-56
2022/07/05 08:04:22;;;;;;;21.20;13.32;;;;;;;19.89;61.75;102138.50;4987671;28;20023;-56
2022/07/05 08:06:47;;;;;;;21.67;13.02;;;;;;;20.03;61.60;102143.88;4989104;28;20030;-56
2022/07/05 08:09:13;;;;;;;23.65;13.30;;;;;;;20.13;60.21;102139.84;4989043;28;20023;-57
2022/07/05 08:11:38;;;;;;;21.75;13.32;;;;;;;20.15;60.09;102149.59;4989747;28;20038;-56
2022/07/05 08:14:04;;;;;;;20.88;12.68;;;;;;;20.34;60.92;102145.50;4989904;28;20342;-55
2022/07/05 08:16:29;;;;;;;20.55;13.05;;;;;;;20.47;60.99;102138.78;4989238;28;20035;-57
2022/07/05 08:21:38;;;;;;;23.50;13.10;;;;;;;20.70;58.92;102150.47;4989193;28;20097;-60
2022/07/05 08:24:13;;;;;;;21.20;13.40;;;;;;;20.65;60.01;102147.88;4989831;28;20386;-56
2022/07/05 08:26:40;;;;;;;20.23;12.60;;;;;;;20.66;59.75;102145.88;4972068;28;20038;-57
2022/07/05 08:29:08;;;;;;;21.73;12.98;;;;;;;20.68;59.24;102150.03;4989355;28;20038;-57
2022/07/05 08:31:40;;;;;;;19.92;11.93;;;;;;;20.71;58.74;102154.13;4989663;28;20446;-58
2022/07/05 08:34:06;;;;;;;20.80;12.40;;;;;;;20.75;58.13;102149.47;4989281;28;20568;-58
2022/07/05 08:36:32;;;;;;;20.88;11.63;;;;;;;20.77;59.20;102152.78;4989552;28;20034;-58
2022/07/05 08:38:57;;;;;;;19.27;11.88;;;;;;;20.69;58.25;102156.47;4989655;28;20030;-57
2022/07/05 08:41:23;;;;;;;21.20;12.20;;;;;;;20.63;59.31;102144.59;4989623;28;20109;-58
2022/07/05 08:43:53;;;;;;;20.00;11.50;;;;;;;20.67;58.05;102137.13;4989456;28;20468;-57
2022/07/05 08:46:20;;;;;;;20.55;11.18;;;;;;;20.72;58.54;102145.34;4989513;28;20323;-58
2022/07/05 08:48:49;;;;;;;20.67;11.45;;;;;;;20.84;57.99;102155.03;4989413;28;20034;-58
2022/07/05 08:51:17;;;;;;;21.67;11.95;;;;;;;21.01;58.65;102148.44;4989793;28;20065;-57
2022/07/05 08:53:43;;;;;;;21.15;12.18;;;;;;;21.09;57.54;102153.13;4990963;28;20033;-56
2022/07/05 08:56:10;;;;;;;19.63;11.88;;;;;;;21.24;57.13;102143.22;4993592;28;20030;-60
2022/07/05 08:58:36;;;;;;;19.92;11.85;;;;;;;21.25;57.52;102139.22;4993448;28;20100;-57
2022/07/05 09:01:02;;;;;;;21.10;12.85;;;;;;;21.30;57.17;102132.56;4993132;28;20449;-58
2022/07/05 09:03:33;;;;;;;20.77;11.40;;;;;;;21.36;57.18;102136.78;4992744;28;20113;-56
2022/07/05 09:06:01;;;;;;;20.35;11.50;;;;;;;21.32;56.45;102147.06;4992706;28;20133;-57
2022/07/05 09:08:32;;;;;;;18.88;11.00;;;;;;;21.32;55.56;102152.72;4993021;28;20043;-57
2022/07/05 09:11:01;;;;;;;19.30;10.88;;;;;;;21.37;55.47;102146.03;4992871;28;20045;-59
2022/07/05 09:13:26;;;;;;;18.63;10.30;;;;;;;21.33;53.96;102134.66;4993096;28;20109;-59
2022/07/05 09:15:51;;;;;;;19.48;10.00;;;;;;;21.38;54.95;102142.03;4999139;28;20125;-58
2022/07/05 09:18:44;;;;;;;19.75;10.95;;;;;;;21.51;55.43;102143.72;4992979;28;20050;-58
2022/07/05 09:21:20;;;;;;;18.17;9.70;;;;;;;21.50;52.47;102139.25;4991848;28;20026;-58
2022/07/05 09:23:57;;;;;;;17.80;10.00;;;;;;;21.76;53.46;102146.56;4992517;28;20030;-56
2022/07/05 09:26:48;;;;;;;19.23;10.02;;;;;;;22.05;53.03;102145.50;4991533;28;20042;-56
2022/07/05 09:29:19;;;;;;;19.20;10.57;;;;;;;22.14;52.09;102142.56;4988170;28;20540;-57
2022/07/05 09:31:48;;;;;;;17.98;10.73;;;;;;;22.23;50.64;102137.59;4991737;28;20443;-57
2022/07/05 09:34:19;;;;;;;18.98;10.25;;;;;;;22.49;50.33;102142.03;4992087;28;20061;-57
2022/07/05 09:36:55;;;;;;;18.83;9.73;;;;;;;22.65;49.05;102146.94;4991609;28;20030;-58
2022/07/05 09:39:29;;;;;;;15.13;8.15;;;;;;;22.41;46.46;102145.81;4991720;28;20030;-57
2022/07/05 09:42:13;;;;;;;16.00;9.02;;;;;;;22.30;47.98;102142.66;4991598;28;20040;-56
2022/07/05 09:44:47;;;;;;;15.50;9.07;;;;;;;22.41;47.58;102138.19;4991904;28;20105;-58
2022/07/05 09:47:15;;;;;;;14.77;8.13;;;;;;;22.67;44.75;102141.75;4980239;28;20106;-57
2022/07/05 09:49:43;;;;;;;15.13;8.73;;;;;;;22.73;44.24;102143.94;4990250;28;20026;-57
2022/07/05 09:52:08;;;;;;;17.67;10.02;;;;;;;22.71;44.13;102143.50;4991982;28;20441;-57
2022/07/05 09:54:34;;;;;;;15.50;8.90;;;;;;;22.72;44.44;102142.28;4974466;28;20105;-58
2022/07/05 09:56:59;;;;;;;18.90;10.20;;;;;;;22.65;45.50;102139.28;4992071;28;20395;-57
2022/07/05 09:59:24;;;;;;;19.73;10.05;;;;;;;22.58;46.22;102142.69;4992199;28;20213;-58
2022/07/05 10:01:51;;;;;;;18.52;10.05;;;;;;;22.53;47.30;102134.50;4987760;28;20026;-57
2022/07/05 10:04:16;;;;;;;16.95;10.00;;;;;;;22.46;45.70;102139.94;4969354;28;20031;-56
2022/07/05 10:06:42;;;;;;;19.73;10.43;;;;;;;22.39;46.93;102137.69;4971457;28;20113;-57
2022/07/05 10:09:09;;;;;;;17.92;10.60;;;;;;;22.47;47.97;102138.75;4971867;28;20217;-57
2022/07/05 10:11:39;;;;;;;17.70;10.15;;;;;;;22.52;47.53;102132.06;4972031;28;20031;-57
2022/07/05 10:14:10;;;;;;;19.67;11.00;;;;;;;22.56;46.57;102132.97;4971848;28;20140;-57
2022/07/05 10:16:35;;;;;;;19.73;11.07;;;;;;;22.58;46.23;102141.91;4971782;28;20105;-57
2022/07/05 10:19:00;;;;;;;17.52;10.27;;;;;;;22.48;46.88;102142.41;4971737;28;20058;-56
2022/07/05 10:21:27;;;;;;;18.70;9.90;;;;;;;22.43;47.61;102135.00;4971556;28;20399;-56
2022/07/05 10:23:56;;;;;;;17.25;9.30;;;;;;;22.64;46.23;102136.81;4971627;28;20058;-56
2022/07/05 10:26:23;;;;;;;17.40;10.23;;;;;;;22.57;47.00;102135.44;4969964;28;20180;-56
2022/07/05 10:28:51;;;;;;;19.23;11.07;;;;;;;22.59;46.52;102137.91;4970215;28;20037;-58
2022/07/05 10:31:18;;;;;;;18.98;10.95;;;;;;;22.80;46.81;102140.50;4971676;28;20357;-57
2022/07/05 10:33:44;;;;;;;18.35;10.45;;;;;;;22.93;45.82;102137.63;4971383;28;20097;-57
2022/07/05 10:36:11;;;;;;;19.73;10.27;;;;;;;23.04;46.02;102138.75;4970938;28;20074;-57
2022/07/05 10:38:39;;;;;;;16.45;9.00;;;;;;;23.18;43.18;102143.97;4970967;28;20034;-57
2022/07/05 10:41:06;;;;;;;17.05;9.00;;;;;;;23.32;42.96;102144.38;4971595;28;20050;-57
2022/07/05 10:43:32;;;;;;;18.27;9.55;;;;;;;23.52;44.53;102148.09;4971602;28;20130;-57
2022/07/05 10:45:58;;;;;;;17.15;8.73;;;;;;;23.46;40.64;102141.09;4970604;28;20094;-56
2022/07/05 10:48:28;;;;;;;15.75;9.38;;;;;;;23.42;43.06;102143.03;4971237;28;20533;-58
2022/07/05 10:51:03;;;;;;;18.25;9.57;;;;;;;23.31;43.59;102127.81;4970727;28;20031;-57
2022/07/05 10:53:54;;;;;;;16.00;9.20;;;;;;;23.46;43.63;102126.97;4971571;28;20148;-57
2022/07/05 10:56:20;;;;;;;19.60;9.60;;;;;;;23.34;42.52;102133.53;4970353;28;20050;-57
2022/07/05 10:58:46;;;;;;;16.33;9.40;;;;;;;23.39;43.06;102129.63;4970984;28;20030;-57
2022/07/05 11:01:23;;;;;;;18.20;9.73;;;;;;;23.67;43.99;102126.69;4970994;28;20051;-60
2022/07/05 11:03:52;;;;;;;17.63;10.02;;;;;;;23.88;43.96;102117.09;4969254;28;20125;-57
2022/07/05 11:06:21;;;;;;;19.58;10.65;;;;;;;24.04;42.53;102119.91;4970858;28;20045;-57
2022/07/05 11:08:58;;;;;;;18.38;10.05;;;;;;;24.02;43.26;102122.28;4971522;28;20030;-56
2022/07/05 11:11:31;;;;;;;15.57;9.35;;;;;;;23.90;42.01;102122.41;4969186;28;20077;-57
2022/07/05 11:13:58;;;;;;;17.40;9.70;;;;;;;23.66;41.92;102135.53;4970851;28;20122;-56